sensor_id;sensor_type;location;lat;lon;timestamp;P1;durP1;ratioP1;P2;durP2;ratioP2
9224;SDS011;4647;48.072;11.616;2023-07-31T00:00:42;5.87;;;2.70;;
9224;SDS011;4647;48.072;11.616;2023-07-31T00:03:13;4.43;;;2.80;;
9224;SDS011;4647;48.072;11.616;2023-07-31T00:05:41;4.90;;;2.80;;
9224;SDS011;4647;48.072;11.616;2023-07-31T00:08:09;7.87;;;2.90;;
9224;SDS011;4647;48.072;11.616;2023-07-31T00:10:38;5.00;;;2.50;;
9224;SDS011;4647;48.072;11.616;2023-07-31T00:13:09;5.67;;;2.60;;
9224;SDS011;4647;48.072;11.616;2023-07-31T00:15:39;4.73;;;2.50;;
9224;SDS011;4647;48.072;11.616;2023-07-31T00:18:08;6.23;;;2.87;;
9224;SDS011;4647;48.072;11.616;2023-07-31T00:20:36;5.00;;;2.87;;
9224;SDS011;4647;48.072;11.616;2023-07-31T00:23:04;5.23;;;2.70;;
9224;SDS011;4647;48.072;11.616;2023-07-31T00:25:33;4.97;;;2.57;;
9224;SDS011;4647;48.072;11.616;2023-07-31T00:28:01;3.93;;;2.70;;
9224;SDS011;4647;48.072;11.616;2023-07-31T00:30:33;6.93;;;2.80;;
9224;SDS011;4647;48.072;11.616;2023-07-31T00:33:01;5.97;;;2.67;;
9224;SDS011;4647;48.072;11.616;2023-07-31T00:35:30;7.23;;;3.00;;
9224;SDS011;4647;48.072;11.616;2023-07-31T00:37:58;4.33;;;2.77;;
9224;SDS011;4647;48.072;11.616;2023-07-31T00:40:27;4.27;;;2.53;;
9224;SDS011;4647;48.072;11.616;2023-07-31T00:42:55;3.97;;;2.70;;
9224;SDS011;4647;48.072;11.616;2023-07-31T00:45:23;5.13;;;2.90;;
9224;SDS011;4647;48.072;11.616;2023-07-31T00:47:56;4.63;;;2.67;;
9224;SDS011;4647;48.072;11.616;2023-07-31T00:50:25;4.17;;;2.63;;
9224;SDS011;4647;48.072;11.616;2023-07-31T00:52:53;4.53;;;2.87;;
9224;SDS011;4647;48.072;11.616;2023-07-31T00:55:22;6.17;;;3.53;;
9224;SDS011;4647;48.072;11.616;2023-07-31T00:57:51;4.87;;;2.97;;
9224;SDS011;4647;48.072;11.616;2023-07-31T01:00:23;4.77;;;2.60;;
9224;SDS011;4647;48.072;11.616;2023-07-31T01:02:56;4.47;;;2.87;;
9224;SDS011;4647;48.072;11.616;2023-07-31T01:05:29;3.97;;;2.63;;
9224;SDS011;4647;48.072;11.616;2023-07-31T01:08:03;4.40;;;2.93;;
9224;SDS011;4647;48.072;11.616;2023-07-31T01:10:38;4.70;;;2.77;;
9224;SDS011;4647;48.072;11.616;2023-07-31T01:13:14;5.17;;;2.87;;
9224;SDS011;4647;48.072;11.616;2023-07-31T01:15:45;7.20;;;2.70;;
9224;SDS011;4647;48.072;11.616;2023-07-31T01:18:16;4.83;;;2.50;;
9224;SDS011;4647;48.072;11.616;2023-07-31T01:20:46;4.13;;;2.73;;
9224;SDS011;4647;48.072;11.616;2023-07-31T01:23:27;4.77;;;2.47;;
9224;SDS011;4647;48.072;11.616;2023-07-31T01:26:09;5.67;;;2.90;;
9224;SDS011;4647;48.072;11.616;2023-07-31T01:28:43;7.23;;;2.97;;
9224;SDS011;4647;48.072;11.616;2023-07-31T01:31:20;4.20;;;2.67;;
9224;SDS011;4647;48.072;11.616;2023-07-31T01:33:50;4.30;;;2.73;;
9224;SDS011;4647;48.072;11.616;2023-07-31T01:36:21;5.80;;;2.93;;
9224;SDS011;4647;48.072;11.616;2023-07-31T01:38:50;6.03;;;2.70;;
9224;SDS011;4647;48.072;11.616;2023-07-31T01:41:21;4.60;;;2.73;;
9224;SDS011;4647;48.072;11.616;2023-07-31T01:43:50;6.00;;;2.60;;
9224;SDS011;4647;48.072;11.616;2023-07-31T01:46:18;3.43;;;2.80;;
9224;SDS011;4647;48.072;11.616;2023-07-31T01:48:47;3.53;;;2.57;;
9224;SDS011;4647;48.072;11.616;2023-07-31T01:51:15;4.37;;;2.90;;
9224;SDS011;4647;48.072;11.616;2023-07-31T01:53:44;5.27;;;2.60;;
9224;SDS011;4647;48.072;11.616;2023-07-31T01:56:12;3.47;;;2.60;;
9224;SDS011;4647;48.072;11.616;2023-07-31T01:58:44;4.73;;;2.80;;
9224;SDS011;4647;48.072;11.616;2023-07-31T02:01:14;5.70;;;2.70;;
9224;SDS011;4647;48.072;11.616;2023-07-31T02:03:42;3.47;;;2.63;;
9224;SDS011;4647;48.072;11.616;2023-07-31T02:06:11;4.63;;;2.70;;
9224;SDS011;4647;48.072;11.616;2023-07-31T02:08:40;3.23;;;2.80;;
9224;SDS011;4647;48.072;11.616;2023-07-31T02:11:09;3.90;;;2.70;;
9224;SDS011;4647;48.072;11.616;2023-07-31T02:13:37;5.83;;;2.70;;
9224;SDS011;4647;48.072;11.616;2023-07-31T02:16:08;5.17;;;2.80;;
9224;SDS011;4647;48.072;11.616;2023-07-31T02:18:37;3.87;;;2.80;;
9224;SDS011;4647;48.072;11.616;2023-07-31T02:21:05;4.13;;;2.70;;
9224;SDS011;4647;48.072;11.616;2023-07-31T02:23:33;4.67;;;3.10;;
9224;SDS011;4647;48.072;11.616;2023-07-31T02:26:02;4.77;;;2.93;;
9224;SDS011;4647;48.072;11.616;2023-07-31T02:28:30;5.53;;;2.90;;
9224;SDS011;4647;48.072;11.616;2023-07-31T02:30:59;6.27;;;2.90;;
9224;SDS011;4647;48.072;11.616;2023-07-31T02:33:30;3.13;;;2.67;;
9224;SDS011;4647;48.072;11.616;2023-07-31T02:36:00;5.07;;;2.73;;
9224;SDS011;4647;48.072;11.616;2023-07-31T02:38:29;3.57;;;2.77;;
9224;SDS011;4647;48.072;11.616;2023-07-31T02:40:57;6.77;;;2.90;;
9224;SDS011;4647;48.072;11.616;2023-07-31T02:43:26;4.40;;;2.90;;
9224;SDS011;4647;48.072;11.616;2023-07-31T02:45:54;4.03;;;2.90;;
9224;SDS011;4647;48.072;11.616;2023-07-31T02:48:23;5.73;;;2.93;;
9224;SDS011;4647;48.072;11.616;2023-07-31T02:50:54;3.70;;;2.73;;
9224;SDS011;4647;48.072;11.616;2023-07-31T02:53:23;4.70;;;3.13;;
9224;SDS011;4647;48.072;11.616;2023-07-31T02:55:53;6.80;;;3.03;;
9224;SDS011;4647;48.072;11.616;2023-07-31T02:58:21;5.23;;;2.90;;
9224;SDS011;4647;48.072;11.616;2023-07-31T03:00:50;4.40;;;3.10;;
9224;SDS011;4647;48.072;11.616;2023-07-31T03:03:19;4.73;;;3.20;;
9224;SDS011;4647;48.072;11.616;2023-07-31T03:05:48;6.73;;;3.37;;
9224;SDS011;4647;48.072;11.616;2023-07-31T03:08:19;5.30;;;3.03;;
9224;SDS011;4647;48.072;11.616;2023-07-31T03:10:47;6.57;;;3.33;;
9224;SDS011;4647;48.072;11.616;2023-07-31T03:13:16;6.33;;;2.83;;
9224;SDS011;4647;48.072;11.616;2023-07-31T03:15:44;5.57;;;3.10;;
9224;SDS011;4647;48.072;11.616;2023-07-31T03:18:13;6.10;;;3.20;;
9224;SDS011;4647;48.072;11.616;2023-07-31T03:20:42;5.60;;;3.30;;
9224;SDS011;4647;48.072;11.616;2023-07-31T03:23:10;5.23;;;3.03;;
9224;SDS011;4647;48.072;11.616;2023-07-31T03:25:42;3.63;;;2.97;;
9224;SDS011;4647;48.072;11.616;2023-07-31T03:28:24;4.87;;;3.03;;
9224;SDS011;4647;48.072;11.616;2023-07-31T03:30:52;4.40;;;2.90;;
9224;SDS011;4647;48.072;11.616;2023-07-31T03:33:21;5.43;;;3.43;;
9224;SDS011;4647;48.072;11.616;2023-07-31T03:35:51;3.83;;;3.00;;
9224;SDS011;4647;48.072;11.616;2023-07-31T03:38:22;5.87;;;3.50;;
9224;SDS011;4647;48.072;11.616;2023-07-31T03:40:53;5.70;;;3.50;;
9224;SDS011;4647;48.072;11.616;2023-07-31T03:43:23;7.80;;;3.50;;
9224;SDS011;4647;48.072;11.616;2023-07-31T03:45:52;5.07;;;3.43;;
9224;SDS011;4647;48.072;11.616;2023-07-31T03:48:21;4.40;;;3.23;;
9224;SDS011;4647;48.072;11.616;2023-07-31T03:50:49;5.27;;;3.27;;
9224;SDS011;4647;48.072;11.616;2023-07-31T03:53:18;5.20;;;3.00;;
9224;SDS011;4647;48.072;11.616;2023-07-31T03:55:48;5.13;;;3.27;;
9224;SDS011;4647;48.072;11.616;2023-07-31T03:58:20;5.40;;;3.17;;
9224;SDS011;4647;48.072;11.616;2023-07-31T04:00:48;6.93;;;3.20;;
9224;SDS011;4647;48.072;11.616;2023-07-31T04:03:16;5.60;;;3.20;;
9224;SDS011;4647;48.072;11.616;2023-07-31T04:05:45;8.27;;;3.50;;
9224;SDS011;4647;48.072;11.616;2023-07-31T04:08:13;8.47;;;3.10;;
9224;SDS011;4647;48.072;11.616;2023-07-31T04:10:42;7.67;;;3.30;;
9224;SDS011;4647;48.072;11.616;2023-07-31T04:13:10;7.80;;;3.30;;
9224;SDS011;4647;48.072;11.616;2023-07-31T04:15:42;21.60;;;6.33;;
9224;SDS011;4647;48.072;11.616;2023-07-31T04:18:15;16.83;;;5.20;;
9224;SDS011;4647;48.072;11.616;2023-07-31T04:20:44;14.47;;;4.97;;
9224;SDS011;4647;48.072;11.616;2023-07-31T04:23:12;9.47;;;4.10;;
9224;SDS011;4647;48.072;11.616;2023-07-31T04:25:50;11.53;;;4.30;;
9224;SDS011;4647;48.072;11.616;2023-07-31T04:28:22;6.37;;;3.77;;
9224;SDS011;4647;48.072;11.616;2023-07-31T04:31:03;6.93;;;4.17;;
9224;SDS011;4647;48.072;11.616;2023-07-31T04:33:42;8.73;;;4.27;;
9224;SDS011;4647;48.072;11.616;2023-07-31T04:36:12;9.73;;;4.83;;
9224;SDS011;4647;48.072;11.616;2023-07-31T04:38:43;11.70;;;4.97;;
9224;SDS011;4647;48.072;11.616;2023-07-31T04:41:21;5.00;;;3.53;;
9224;SDS011;4647;48.072;11.616;2023-07-31T04:43:59;8.23;;;3.70;;
9224;SDS011;4647;48.072;11.616;2023-07-31T04:46:31;5.73;;;3.00;;
9224;SDS011;4647;48.072;11.616;2023-07-31T04:49:00;6.87;;;3.80;;
9224;SDS011;4647;48.072;11.616;2023-07-31T04:51:29;5.80;;;3.60;;
9224;SDS011;4647;48.072;11.616;2023-07-31T04:53:57;5.43;;;3.30;;
9224;SDS011;4647;48.072;11.616;2023-07-31T04:56:26;5.00;;;3.50;;
9224;SDS011;4647;48.072;11.616;2023-07-31T05:04:36;4.23;;;3.03;;
9224;SDS011;4647;48.072;11.616;2023-07-31T05:07:22;4.63;;;3.23;;
9224;SDS011;4647;48.072;11.616;2023-07-31T05:09:54;5.33;;;3.13;;
9224;SDS011;4647;48.072;11.616;2023-07-31T05:12:25;4.10;;;3.00;;
9224;SDS011;4647;48.072;11.616;2023-07-31T05:14:59;4.43;;;3.37;;
9224;SDS011;4647;48.072;11.616;2023-07-31T05:17:30;4.97;;;2.90;;
9224;SDS011;4647;48.072;11.616;2023-07-31T05:20:01;3.43;;;2.63;;
9224;SDS011;4647;48.072;11.616;2023-07-31T05:22:30;8.53;;;3.27;;
9224;SDS011;4647;48.072;11.616;2023-07-31T05:24:59;10.10;;;2.60;;
9224;SDS011;4647;48.072;11.616;2023-07-31T05:27:28;5.63;;;3.30;;
9224;SDS011;4647;48.072;11.616;2023-07-31T05:29:58;6.67;;;2.90;;
9224;SDS011;4647;48.072;11.616;2023-07-31T05:32:38;4.00;;;2.77;;
9224;SDS011;4647;48.072;11.616;2023-07-31T05:35:09;5.37;;;2.60;;
9224;SDS011;4647;48.072;11.616;2023-07-31T05:37:38;4.73;;;2.90;;
9224;SDS011;4647;48.072;11.616;2023-07-31T05:40:07;7.07;;;4.33;;
9224;SDS011;4647;48.072;11.616;2023-07-31T05:42:39;4.07;;;2.93;;
9224;SDS011;4647;48.072;11.616;2023-07-31T05:45:11;5.37;;;2.93;;
9224;SDS011;4647;48.072;11.616;2023-07-31T05:47:39;3.67;;;2.90;;
9224;SDS011;4647;48.072;11.616;2023-07-31T05:50:12;4.07;;;2.93;;
9224;SDS011;4647;48.072;11.616;2023-07-31T05:52:41;5.87;;;3.80;;
9224;SDS011;4647;48.072;11.616;2023-07-31T05:55:09;5.07;;;2.70;;
9224;SDS011;4647;48.072;11.616;2023-07-31T05:57:38;5.47;;;3.07;;
9224;SDS011;4647;48.072;11.616;2023-07-31T06:00:10;4.07;;;2.50;;
9224;SDS011;4647;48.072;11.616;2023-07-31T06:02:39;5.33;;;3.03;;
9224;SDS011;4647;48.072;11.616;2023-07-31T06:05:23;4.40;;;2.70;;
9224;SDS011;4647;48.072;11.616;2023-07-31T06:07:53;3.90;;;2.70;;
9224;SDS011;4647;48.072;11.616;2023-07-31T06:10:22;5.77;;;2.83;;
9224;SDS011;4647;48.072;11.616;2023-07-31T06:12:52;4.03;;;2.63;;
9224;SDS011;4647;48.072;11.616;2023-07-31T06:15:26;3.63;;;2.80;;
9224;SDS011;4647;48.072;11.616;2023-07-31T06:17:58;4.03;;;2.97;;
9224;SDS011;4647;48.072;11.616;2023-07-31T06:20:33;4.97;;;3.00;;
9224;SDS011;4647;48.072;11.616;2023-07-31T06:23:04;4.83;;;2.77;;
9224;SDS011;4647;48.072;11.616;2023-07-31T06:25:32;6.33;;;3.03;;
9224;SDS011;4647;48.072;11.616;2023-07-31T06:28:01;5.93;;;2.70;;
9224;SDS011;4647;48.072;11.616;2023-07-31T06:30:31;4.87;;;2.70;;
9224;SDS011;4647;48.072;11.616;2023-07-31T06:33:00;6.03;;;2.80;;
9224;SDS011;4647;48.072;11.616;2023-07-31T06:35:28;4.07;;;3.03;;
9224;SDS011;4647;48.072;11.616;2023-07-31T06:38:01;3.63;;;2.80;;
9224;SDS011;4647;48.072;11.616;2023-07-31T06:40:30;6.60;;;2.70;;
9224;SDS011;4647;48.072;11.616;2023-07-31T06:42:58;4.47;;;3.07;;
9224;SDS011;4647;48.072;11.616;2023-07-31T06:45:32;5.33;;;2.90;;
9224;SDS011;4647;48.072;11.616;2023-07-31T06:48:01;4.20;;;3.00;;
9224;SDS011;4647;48.072;11.616;2023-07-31T06:50:31;3.80;;;2.77;;
9224;SDS011;4647;48.072;11.616;2023-07-31T06:53:03;4.27;;;2.50;;
9224;SDS011;4647;48.072;11.616;2023-07-31T06:55:32;5.37;;;2.80;;
9224;SDS011;4647;48.072;11.616;2023-07-31T06:58:01;5.53;;;2.87;;
9224;SDS011;4647;48.072;11.616;2023-07-31T07:00:30;3.40;;;2.67;;
9224;SDS011;4647;48.072;11.616;2023-07-31T07:02:58;4.70;;;2.93;;
9224;SDS011;4647;48.072;11.616;2023-07-31T07:05:27;6.23;;;2.60;;
9224;SDS011;4647;48.072;11.616;2023-07-31T07:07:55;3.57;;;2.57;;
9224;SDS011;4647;48.072;11.616;2023-07-31T07:10:27;5.70;;;2.70;;
9224;SDS011;4647;48.072;11.616;2023-07-31T07:12:56;4.60;;;2.50;;
9224;SDS011;4647;48.072;11.616;2023-07-31T07:15:24;4.40;;;2.53;;
9224;SDS011;4647;48.072;11.616;2023-07-31T07:17:54;3.57;;;2.77;;
9224;SDS011;4647;48.072;11.616;2023-07-31T07:20:22;3.27;;;2.40;;
9224;SDS011;4647;48.072;11.616;2023-07-31T07:22:50;4.07;;;2.73;;
9224;SDS011;4647;48.072;11.616;2023-07-31T07:25:19;3.80;;;2.67;;
9224;SDS011;4647;48.072;11.616;2023-07-31T07:27:50;5.40;;;2.70;;
9224;SDS011;4647;48.072;11.616;2023-07-31T07:30:19;4.60;;;2.90;;
9224;SDS011;4647;48.072;11.616;2023-07-31T07:32:49;3.50;;;2.60;;
9224;SDS011;4647;48.072;11.616;2023-07-31T07:35:17;4.17;;;2.57;;
9224;SDS011;4647;48.072;11.616;2023-07-31T07:37:48;5.73;;;2.50;;
9224;SDS011;4647;48.072;11.616;2023-07-31T07:40:16;3.57;;;2.67;;
9224;SDS011;4647;48.072;11.616;2023-07-31T07:42:45;4.77;;;2.80;;
9224;SDS011;4647;48.072;11.616;2023-07-31T07:45:16;3.97;;;3.13;;
9224;SDS011;4647;48.072;11.616;2023-07-31T07:47:45;4.63;;;2.60;;
9224;SDS011;4647;48.072;11.616;2023-07-31T07:50:14;8.60;;;2.70;;
9224;SDS011;4647;48.072;11.616;2023-07-31T07:52:42;4.17;;;2.80;;
9224;SDS011;4647;48.072;11.616;2023-07-31T07:55:11;4.10;;;2.37;;
9224;SDS011;4647;48.072;11.616;2023-07-31T07:57:39;8.50;;;2.60;;
9224;SDS011;4647;48.072;11.616;2023-07-31T08:00:09;4.93;;;2.63;;
9224;SDS011;4647;48.072;11.616;2023-07-31T08:02:41;4.77;;;2.57;;
9224;SDS011;4647;48.072;11.616;2023-07-31T08:05:09;5.03;;;2.63;;
9224;SDS011;4647;48.072;11.616;2023-07-31T08:07:38;4.17;;;2.33;;
9224;SDS011;4647;48.072;11.616;2023-07-31T08:10:06;4.57;;;2.70;;
9224;SDS011;4647;48.072;11.616;2023-07-31T08:12:35;3.50;;;2.30;;
9224;SDS011;4647;48.072;11.616;2023-07-31T08:15:04;7.47;;;2.30;;
9224;SDS011;4647;48.072;11.616;2023-07-31T08:17:34;3.53;;;2.53;;
9224;SDS011;4647;48.072;11.616;2023-07-31T08:20:06;3.10;;;2.37;;
9224;SDS011;4647;48.072;11.616;2023-07-31T08:22:35;4.60;;;2.60;;
9224;SDS011;4647;48.072;11.616;2023-07-31T08:25:04;3.80;;;2.50;;
9224;SDS011;4647;48.072;11.616;2023-07-31T08:27:35;4.97;;;2.67;;
9224;SDS011;4647;48.072;11.616;2023-07-31T08:30:04;3.93;;;2.70;;
9224;SDS011;4647;48.072;11.616;2023-07-31T08:32:34;5.50;;;2.70;;
9224;SDS011;4647;48.072;11.616;2023-07-31T08:35:05;5.07;;;2.60;;
9224;SDS011;4647;48.072;11.616;2023-07-31T08:37:34;4.13;;;2.63;;
9224;SDS011;4647;48.072;11.616;2023-07-31T08:40:03;4.47;;;3.10;;
9224;SDS011;4647;48.072;11.616;2023-07-31T08:42:34;6.80;;;2.60;;
9224;SDS011;4647;48.072;11.616;2023-07-31T08:45:13;4.87;;;2.80;;
9224;SDS011;4647;48.072;11.616;2023-07-31T08:47:44;3.87;;;2.60;;
9224;SDS011;4647;48.072;11.616;2023-07-31T08:50:19;4.03;;;2.43;;
9224;SDS011;4647;48.072;11.616;2023-07-31T08:52:49;5.77;;;2.80;;
9224;SDS011;4647;48.072;11.616;2023-07-31T08:55:21;3.40;;;2.37;;
9224;SDS011;4647;48.072;11.616;2023-07-31T08:57:51;3.67;;;2.53;;
9224;SDS011;4647;48.072;11.616;2023-07-31T09:00:20;4.20;;;2.97;;
9224;SDS011;4647;48.072;11.616;2023-07-31T09:02:52;3.80;;;2.60;;
9224;SDS011;4647;48.072;11.616;2023-07-31T09:05:30;4.40;;;2.67;;
9224;SDS011;4647;48.072;11.616;2023-07-31T09:07:59;3.80;;;2.67;;
9224;SDS011;4647;48.072;11.616;2023-07-31T09:10:29;4.93;;;2.77;;
9224;SDS011;4647;48.072;11.616;2023-07-31T09:13:00;5.70;;;2.80;;
9224;SDS011;4647;48.072;11.616;2023-07-31T09:15:30;5.90;;;2.77;;
9224;SDS011;4647;48.072;11.616;2023-07-31T09:18:00;3.27;;;2.50;;
9224;SDS011;4647;48.072;11.616;2023-07-31T09:20:32;5.27;;;2.77;;
9224;SDS011;4647;48.072;11.616;2023-07-31T09:23:08;4.80;;;2.53;;
9224;SDS011;4647;48.072;11.616;2023-07-31T09:25:38;5.40;;;2.87;;
9224;SDS011;4647;48.072;11.616;2023-07-31T09:28:10;5.37;;;3.00;;
9224;SDS011;4647;48.072;11.616;2023-07-31T09:30:46;4.13;;;2.73;;
9224;SDS011;4647;48.072;11.616;2023-07-31T09:33:19;3.47;;;2.60;;
9224;SDS011;4647;48.072;11.616;2023-07-31T09:35:55;3.93;;;2.83;;
9224;SDS011;4647;48.072;11.616;2023-07-31T09:38:26;3.50;;;2.63;;
9224;SDS011;4647;48.072;11.616;2023-07-31T09:40:57;5.07;;;2.70;;
9224;SDS011;4647;48.072;11.616;2023-07-31T09:43:28;3.50;;;2.77;;
9224;SDS011;4647;48.072;11.616;2023-07-31T09:45:58;5.27;;;2.90;;
9224;SDS011;4647;48.072;11.616;2023-07-31T09:48:27;4.47;;;2.67;;
9224;SDS011;4647;48.072;11.616;2023-07-31T09:50:59;4.53;;;2.53;;
9224;SDS011;4647;48.072;11.616;2023-07-31T09:53:33;5.00;;;2.70;;
9224;SDS011;4647;48.072;11.616;2023-07-31T09:56:02;4.73;;;2.57;;
9224;SDS011;4647;48.072;11.616;2023-07-31T09:58:32;4.53;;;2.83;;
9224;SDS011;4647;48.072;11.616;2023-07-31T10:01:02;4.23;;;2.93;;
9224;SDS011;4647;48.072;11.616;2023-07-31T10:03:31;5.53;;;2.77;;
9224;SDS011;4647;48.072;11.616;2023-07-31T10:06:03;4.07;;;2.33;;
9224;SDS011;4647;48.072;11.616;2023-07-31T10:08:33;6.90;;;2.70;;
9224;SDS011;4647;48.072;11.616;2023-07-31T10:11:04;5.23;;;2.77;;
9224;SDS011;4647;48.072;11.616;2023-07-31T10:13:35;4.90;;;2.70;;
9224;SDS011;4647;48.072;11.616;2023-07-31T10:16:04;3.80;;;2.53;;
9224;SDS011;4647;48.072;11.616;2023-07-31T10:18:35;5.03;;;2.77;;
9224;SDS011;4647;48.072;11.616;2023-07-31T10:21:06;7.17;;;2.53;;
9224;SDS011;4647;48.072;11.616;2023-07-31T10:23:36;5.20;;;2.47;;
9224;SDS011;4647;48.072;11.616;2023-07-31T10:26:05;4.53;;;3.00;;
9224;SDS011;4647;48.072;11.616;2023-07-31T10:28:35;3.67;;;2.70;;
9224;SDS011;4647;48.072;11.616;2023-07-31T10:31:06;6.23;;;3.10;;
9224;SDS011;4647;48.072;11.616;2023-07-31T10:33:35;4.97;;;2.70;;
9224;SDS011;4647;48.072;11.616;2023-07-31T10:36:16;4.13;;;2.57;;
9224;SDS011;4647;48.072;11.616;2023-07-31T10:38:46;6.23;;;3.03;;
9224;SDS011;4647;48.072;11.616;2023-07-31T10:41:16;3.27;;;2.60;;
9224;SDS011;4647;48.072;11.616;2023-07-31T10:43:45;3.70;;;2.60;;
9224;SDS011;4647;48.072;11.616;2023-07-31T10:46:15;3.40;;;2.70;;
9224;SDS011;4647;48.072;11.616;2023-07-31T10:48:43;6.00;;;2.80;;
9224;SDS011;4647;48.072;11.616;2023-07-31T10:51:12;5.57;;;2.50;;
9224;SDS011;4647;48.072;11.616;2023-07-31T10:53:45;3.00;;;2.63;;
9224;SDS011;4647;48.072;11.616;2023-07-31T10:56:13;4.83;;;2.83;;
9224;SDS011;4647;48.072;11.616;2023-07-31T10:58:47;4.10;;;3.00;;
9224;SDS011;4647;48.072;11.616;2023-07-31T11:04:21;5.33;;;2.80;;
9224;SDS011;4647;48.072;11.616;2023-07-31T11:06:56;5.13;;;2.90;;
9224;SDS011;4647;48.072;11.616;2023-07-31T11:09:30;2.83;;;2.53;;
9224;SDS011;4647;48.072;11.616;2023-07-31T11:12:00;3.83;;;2.60;;
9224;SDS011;4647;48.072;11.616;2023-07-31T11:14:29;3.67;;;2.77;;
9224;SDS011;4647;48.072;11.616;2023-07-31T11:16:57;5.77;;;2.60;;
9224;SDS011;4647;48.072;11.616;2023-07-31T11:19:26;3.57;;;2.53;;
9224;SDS011;4647;48.072;11.616;2023-07-31T11:21:54;5.03;;;2.67;;
9224;SDS011;4647;48.072;11.616;2023-07-31T11:24:24;5.40;;;2.90;;
9224;SDS011;4647;48.072;11.616;2023-07-31T11:26:55;7.60;;;2.97;;
9224;SDS011;4647;48.072;11.616;2023-07-31T11:29:27;4.97;;;2.97;;
9224;SDS011;4647;48.072;11.616;2023-07-31T11:31:56;3.67;;;2.53;;
9224;SDS011;4647;48.072;11.616;2023-07-31T11:34:24;3.50;;;2.70;;
9224;SDS011;4647;48.072;11.616;2023-07-31T11:36:53;4.53;;;2.80;;
9224;SDS011;4647;48.072;11.616;2023-07-31T11:39:22;4.07;;;2.80;;
9224;SDS011;4647;48.072;11.616;2023-07-31T11:42:01;4.53;;;2.93;;
9224;SDS011;4647;48.072;11.616;2023-07-31T11:44:37;3.80;;;2.67;;
9224;SDS011;4647;48.072;11.616;2023-07-31T11:47:11;3.87;;;2.63;;
9224;SDS011;4647;48.072;11.616;2023-07-31T11:49:40;4.53;;;2.80;;
9224;SDS011;4647;48.072;11.616;2023-07-31T11:52:08;3.50;;;2.67;;
9224;SDS011;4647;48.072;11.616;2023-07-31T11:54:37;5.50;;;2.60;;
9224;SDS011;4647;48.072;11.616;2023-07-31T11:57:10;5.07;;;2.93;;
9224;SDS011;4647;48.072;11.616;2023-07-31T11:59:39;3.97;;;2.90;;
9224;SDS011;4647;48.072;11.616;2023-07-31T12:02:08;12.83;;;3.40;;
9224;SDS011;4647;48.072;11.616;2023-07-31T12:04:37;5.50;;;2.67;;
9224;SDS011;4647;48.072;11.616;2023-07-31T12:07:05;20.13;;;5.33;;
9224;SDS011;4647;48.072;11.616;2023-07-31T12:09:34;4.80;;;3.30;;
9224;SDS011;4647;48.072;11.616;2023-07-31T12:12:02;3.03;;;2.57;;
9224;SDS011;4647;48.072;11.616;2023-07-31T12:14:47;6.40;;;2.70;;
9224;SDS011;4647;48.072;11.616;2023-07-31T12:17:16;3.57;;;2.70;;
9224;SDS011;4647;48.072;11.616;2023-07-31T12:19:48;4.17;;;2.50;;
9224;SDS011;4647;48.072;11.616;2023-07-31T12:22:16;6.13;;;3.03;;
9224;SDS011;4647;48.072;11.616;2023-07-31T12:24:45;4.33;;;2.60;;
9224;SDS011;4647;48.072;11.616;2023-07-31T12:27:16;4.10;;;2.70;;
9224;SDS011;4647;48.072;11.616;2023-07-31T12:29:49;4.40;;;2.93;;
9224;SDS011;4647;48.072;11.616;2023-07-31T12:32:19;4.37;;;3.00;;
9224;SDS011;4647;48.072;11.616;2023-07-31T12:34:49;4.30;;;2.50;;
9224;SDS011;4647;48.072;11.616;2023-07-31T12:37:17;4.30;;;2.63;;
9224;SDS011;4647;48.072;11.616;2023-07-31T12:39:46;4.63;;;2.80;;
9224;SDS011;4647;48.072;11.616;2023-07-31T12:42:17;4.40;;;3.00;;
9224;SDS011;4647;48.072;11.616;2023-07-31T12:44:46;2.90;;;2.40;;
9224;SDS011;4647;48.072;11.616;2023-07-31T12:47:15;3.00;;;2.70;;
9224;SDS011;4647;48.072;11.616;2023-07-31T12:49:44;2.90;;;2.57;;
9224;SDS011;4647;48.072;11.616;2023-07-31T12:52:12;3.40;;;2.57;;
9224;SDS011;4647;48.072;11.616;2023-07-31T12:54:41;3.43;;;2.80;;
9224;SDS011;4647;48.072;11.616;2023-07-31T12:57:09;2.77;;;2.47;;
9224;SDS011;4647;48.072;11.616;2023-07-31T12:59:40;3.70;;;2.60;;
9224;SDS011;4647;48.072;11.616;2023-07-31T13:02:09;3.23;;;2.53;;
9224;SDS011;4647;48.072;11.616;2023-07-31T13:04:37;6.10;;;2.87;;
9224;SDS011;4647;48.072;11.616;2023-07-31T13:07:06;3.17;;;2.40;;
9224;SDS011;4647;48.072;11.616;2023-07-31T13:09:34;3.87;;;2.63;;
9224;SDS011;4647;48.072;11.616;2023-07-31T13:12:03;4.10;;;2.83;;
9224;SDS011;4647;48.072;11.616;2023-07-31T13:14:32;3.83;;;2.80;;
9224;SDS011;4647;48.072;11.616;2023-07-31T13:17:03;3.23;;;2.60;;
9224;SDS011;4647;48.072;11.616;2023-07-31T13:19:31;6.37;;;2.83;;
9224;SDS011;4647;48.072;11.616;2023-07-31T13:22:00;4.87;;;2.60;;
9224;SDS011;4647;48.072;11.616;2023-07-31T13:24:29;3.90;;;2.63;;
9224;SDS011;4647;48.072;11.616;2023-07-31T13:26:57;5.83;;;2.33;;
9224;SDS011;4647;48.072;11.616;2023-07-31T13:29:26;5.30;;;2.30;;
9224;SDS011;4647;48.072;11.616;2023-07-31T13:31:55;4.80;;;2.33;;
9224;SDS011;4647;48.072;11.616;2023-07-31T13:34:26;2.47;;;2.23;;
9224;SDS011;4647;48.072;11.616;2023-07-31T13:36:54;3.03;;;2.20;;
9224;SDS011;4647;48.072;11.616;2023-07-31T13:39:23;2.97;;;2.20;;
9224;SDS011;4647;48.072;11.616;2023-07-31T13:41:52;5.00;;;2.33;;
9224;SDS011;4647;48.072;11.616;2023-07-31T13:44:20;2.67;;;2.30;;
9224;SDS011;4647;48.072;11.616;2023-07-31T13:46:49;3.77;;;2.30;;
9224;SDS011;4647;48.072;11.616;2023-07-31T13:49:17;3.00;;;2.60;;
9224;SDS011;4647;48.072;11.616;2023-07-31T13:51:48;5.43;;;2.40;;
9224;SDS011;4647;48.072;11.616;2023-07-31T13:54:17;2.87;;;2.43;;
9224;SDS011;4647;48.072;11.616;2023-07-31T13:56:46;3.47;;;2.30;;
9224;SDS011;4647;48.072;11.616;2023-07-31T13:59:15;3.90;;;2.60;;
9224;SDS011;4647;48.072;11.616;2023-07-31T14:01:44;5.53;;;2.37;;
9224;SDS011;4647;48.072;11.616;2023-07-31T14:04:13;3.30;;;2.30;;
9224;SDS011;4647;48.072;11.616;2023-07-31T14:06:48;3.43;;;2.07;;
9224;SDS011;4647;48.072;11.616;2023-07-31T14:09:20;2.90;;;2.30;;
9224;SDS011;4647;48.072;11.616;2023-07-31T14:11:50;3.37;;;2.20;;
9224;SDS011;4647;48.072;11.616;2023-07-31T14:14:23;5.00;;;2.40;;
9224;SDS011;4647;48.072;11.616;2023-07-31T14:16:52;3.90;;;2.30;;
9224;SDS011;4647;48.072;11.616;2023-07-31T14:19:21;4.77;;;2.70;;
9224;SDS011;4647;48.072;11.616;2023-07-31T14:21:53;6.93;;;2.10;;
9224;SDS011;4647;48.072;11.616;2023-07-31T14:24:22;3.60;;;2.40;;
9224;SDS011;4647;48.072;11.616;2023-07-31T14:26:50;2.57;;;2.37;;
9224;SDS011;4647;48.072;11.616;2023-07-31T14:29:19;3.97;;;2.60;;
9224;SDS011;4647;48.072;11.616;2023-07-31T14:31:49;5.43;;;2.30;;
9224;SDS011;4647;48.072;11.616;2023-07-31T14:34:18;2.77;;;2.23;;
9224;SDS011;4647;48.072;11.616;2023-07-31T14:36:47;3.20;;;2.63;;
9224;SDS011;4647;48.072;11.616;2023-07-31T14:39:19;4.57;;;2.60;;
9224;SDS011;4647;48.072;11.616;2023-07-31T14:41:49;2.80;;;2.47;;
9224;SDS011;4647;48.072;11.616;2023-07-31T14:44:18;5.50;;;2.43;;
9224;SDS011;4647;48.072;11.616;2023-07-31T14:46:47;3.60;;;2.37;;
9224;SDS011;4647;48.072;11.616;2023-07-31T14:49:15;3.30;;;2.27;;
9224;SDS011;4647;48.072;11.616;2023-07-31T14:51:44;4.80;;;2.40;;
9224;SDS011;4647;48.072;11.616;2023-07-31T14:54:12;3.20;;;2.63;;
9224;SDS011;4647;48.072;11.616;2023-07-31T14:56:47;3.30;;;2.50;;
9224;SDS011;4647;48.072;11.616;2023-07-31T14:59:15;3.37;;;2.70;;
9224;SDS011;4647;48.072;11.616;2023-07-31T15:01:50;3.33;;;2.60;;
9224;SDS011;4647;48.072;11.616;2023-07-31T15:04:20;2.93;;;2.40;;
9224;SDS011;4647;48.072;11.616;2023-07-31T15:06:57;4.93;;;2.60;;
9224;SDS011;4647;48.072;11.616;2023-07-31T15:09:40;4.37;;;2.73;;
9224;SDS011;4647;48.072;11.616;2023-07-31T15:12:14;3.83;;;2.40;;
9224;SDS011;4647;48.072;11.616;2023-07-31T15:14:45;3.50;;;2.70;;
9224;SDS011;4647;48.072;11.616;2023-07-31T15:17:17;5.50;;;2.67;;
9224;SDS011;4647;48.072;11.616;2023-07-31T15:19:51;5.30;;;2.70;;
9224;SDS011;4647;48.072;11.616;2023-07-31T15:22:20;3.20;;;2.90;;
9224;SDS011;4647;48.072;11.616;2023-07-31T15:37:58;4.87;;;3.47;;
9224;SDS011;4647;48.072;11.616;2023-07-31T15:40:47;5.40;;;3.10;;